createdAt,value
2018-02-03T00:02:16.843Z,75.47
2018-02-03T00:04:45.146Z,75.60
2018-02-03T00:07:13.477Z,75.53
2018-02-03T00:09:42.375Z,75.39
2018-02-03T00:12:10.689Z,76.62
2018-02-03T00:14:39.031Z,77.09
2018-02-03T00:17:07.383Z,76.90
2018-02-03T00:19:35.710Z,76.98
2018-02-03T00:22:04.023Z,76.43
2018-02-03T00:24:32.368Z,75.97
2018-02-03T00:27:00.698Z,75.41
2018-02-03T00:29:29.821Z,75.11
2018-02-03T00:31:58.204Z,74.84
2018-02-03T00:34:26.535Z,75.57
2018-02-03T00:36:54.848Z,75.62
2018-02-03T00:39:23.214Z,75.92
2018-02-03T00:41:52.378Z,76.00
2018-02-03T00:44:20.680Z,75.99
2018-02-03T00:46:49.000Z,75.55
2018-02-03T00:49:17.316Z,76.02
2018-02-03T00:51:45.638Z,75.98
2018-02-03T00:54:14.111Z,75.22
2018-02-03T00:56:42.452Z,75.33
2018-02-03T00:59:10.781Z,75.29
2018-02-03T01:01:39.168Z,75.52
2018-02-03T01:04:07.513Z,74.89
2018-02-03T01:06:36.870Z,76.67
2018-02-03T01:09:05.305Z,77.33
2018-02-03T01:11:33.693Z,77.05
2018-02-03T01:14:02.791Z,76.57
2018-02-03T01:16:31.317Z,75.86
2018-02-03T01:18:59.639Z,76.02
2018-02-03T01:21:27.967Z,77.12
2018-02-03T01:23:56.311Z,77.47
2018-02-03T01:26:25.402Z,76.90
2018-02-03T01:28:54.468Z,75.53
2018-02-03T01:31:22.817Z,75.49
2018-02-03T01:33:51.125Z,75.68
2018-02-03T01:36:19.416Z,76.30
2018-02-03T01:38:48.098Z,76.22
2018-02-03T01:41:16.440Z,76.04
2018-02-03T01:43:44.771Z,76.54
2018-02-03T01:46:13.880Z,76.95
2018-02-03T01:48:42.181Z,76.36
2018-02-03T01:51:10.494Z,76.12
2018-02-03T01:53:38.844Z,76.02
2018-02-03T01:56:07.195Z,76.35
2018-02-03T01:58:35.519Z,76.22
2018-02-03T02:01:04.231Z,75.34
2018-02-03T02:03:32.561Z,75.00
2018-02-03T02:06:00.878Z,75.56
2018-02-03T02:08:29.251Z,74.93
2018-02-03T02:10:57.571Z,74.67
2018-02-03T02:13:25.908Z,74.18
2018-02-03T02:15:54.290Z,74.19
2018-02-03T02:18:22.636Z,73.55
2018-02-03T02:20:50.986Z,74.47
2018-02-03T02:23:19.659Z,74.19
2018-02-03T02:25:48.754Z,74.39
2018-02-03T02:28:17.847Z,74.58
2018-02-03T02:30:46.960Z,74.36
2018-02-03T02:33:16.093Z,74.44
2018-02-03T02:35:44.412Z,73.94
2018-02-03T02:38:13.528Z,74.65
2018-02-03T02:40:41.874Z,74.64
2018-02-03T02:43:10.283Z,74.71
2018-02-03T02:45:38.959Z,73.67
2018-02-03T02:48:07.317Z,74.52
2018-02-03T02:50:35.656Z,73.81
2018-02-03T02:53:04.012Z,73.70
2018-02-03T02:55:32.342Z,72.26
2018-02-03T02:58:00.661Z,72.92
2018-02-03T03:00:29.830Z,72.32
2018-02-03T03:02:58.203Z,72.07
2018-02-03T03:05:26.552Z,72.50
2018-02-03T03:07:55.122Z,72.39
2018-02-03T03:10:23.521Z,72.90
2018-02-03T03:12:51.827Z,72.11
2018-02-03T03:15:20.220Z,72.12
2018-02-03T03:17:48.634Z,72.72
2018-02-03T03:20:17.045Z,72.63
2018-02-03T03:22:45.436Z,72.25
2018-02-03T03:25:13.830Z,71.99
2018-02-03T03:27:42.228Z,72.97
2018-02-03T03:30:11.852Z,73.89
2018-02-03T03:32:40.228Z,74.18
2018-02-03T03:35:09.400Z,73.92
2018-02-03T03:37:37.873Z,73.02
2018-02-03T03:40:06.170Z,72.56
2018-02-03T03:42:34.535Z,72.80
2018-02-03T03:45:02.948Z,72.47
2018-02-03T03:47:31.341Z,72.73
2018-02-03T03:49:59.688Z,72.56
2018-02-03T03:52:29.178Z,72.77
2018-02-03T03:54:57.573Z,73.16
2018-02-03T03:57:25.933Z,73.27
2018-02-03T03:59:54.298Z,73.36
2018-02-03T04:02:22.876Z,73.57
2018-02-03T04:04:51.189Z,73.19
2018-02-03T04:07:19.548Z,72.67
2018-02-03T04:09:47.874Z,72.88
2018-02-03T04:12:16.189Z,72.27
2018-02-03T04:14:44.728Z,72.75
2018-02-03T04:17:13.826Z,73.13
2018-02-03T04:19:42.340Z,73.08
2018-02-03T04:22:10.682Z,72.64
2018-02-03T04:24:39.753Z,71.91
2018-02-03T04:27:08.055Z,72.59
2018-02-03T04:29:37.160Z,73.06
2018-02-03T04:32:06.247Z,71.93
2018-02-03T04:34:34.569Z,71.49
2018-02-03T04:37:03.064Z,71.45
2018-02-03T04:39:31.829Z,72.55
2018-02-03T04:42:00.124Z,71.12
2018-02-03T04:44:28.451Z,71.16
2018-02-03T04:46:57.524Z,71.12
2018-02-03T04:49:25.823Z,70.64
2018-02-03T04:51:54.955Z,70.62
2018-02-03T04:54:23.283Z,71.02
2018-02-03T04:56:52.360Z,71.63
2018-02-03T04:59:20.911Z,71.06
2018-02-03T05:01:49.215Z,70.48
2018-02-03T05:04:17.523Z,70.81
2018-02-03T05:06:46.662Z,71.17
2018-02-03T05:09:14.956Z,71.16
2018-02-03T05:11:43.272Z,70.95
2018-02-03T05:14:11.625Z,71.16
2018-02-03T05:16:39.952Z,71.36
2018-02-03T05:19:08.276Z,71.16
2018-02-03T05:21:36.835Z,71.19
2018-02-03T05:24:05.132Z,71.60
2018-02-03T05:26:33.428Z,71.25
2018-02-03T05:29:01.791Z,71.56
2018-02-03T05:31:30.127Z,71.58
2018-02-03T05:33:58.460Z,71.57
2018-02-03T05:36:26.802Z,72.10
2018-02-03T05:38:55.128Z,71.93
2018-02-03T05:41:23.473Z,71.80
2018-02-03T05:43:51.913Z,71.74
2018-02-03T05:46:21.007Z,71.99
2018-02-03T05:48:49.315Z,71.91
2018-02-03T05:51:17.625Z,71.51
2018-02-03T05:53:45.983Z,72.08
2018-02-03T05:56:14.296Z,72.45
2018-02-03T05:58:42.670Z,71.90
2018-02-03T06:01:10.977Z,72.35
2018-02-03T06:03:40.057Z,71.78
2018-02-03T06:06:08.532Z,72.56
2018-02-03T06:08:37.726Z,72.42
2018-02-03T06:11:06.206Z,71.33
2018-02-03T06:13:34.631Z,71.46
2018-02-03T06:16:02.970Z,70.70
2018-02-03T06:18:31.318Z,71.07
2018-02-03T06:20:59.728Z,70.49
2018-02-03T06:23:28.175Z,70.91
2018-02-03T06:25:56.494Z,71.21
2018-02-03T06:28:25.237Z,71.16
2018-02-03T06:30:53.657Z,70.50
2018-02-03T06:33:22.078Z,69.92
2018-02-03T06:35:50.606Z,70.49
2018-02-03T06:38:19.100Z,70.07
2018-02-03T06:40:47.465Z,70.53
2018-02-03T06:43:16.311Z,70.71
2018-02-03T06:45:44.851Z,70.33
2018-02-03T06:48:13.256Z,69.77
2018-02-03T06:50:41.949Z,70.56
2018-02-03T06:53:10.362Z,70.26
2018-02-03T06:55:38.779Z,70.64
2018-02-03T06:58:07.160Z,70.89
2018-02-03T07:00:35.519Z,70.71
2018-02-03T07:03:03.858Z,70.77
2018-02-03T07:05:32.275Z,70.86
2018-02-03T07:08:00.592Z,71.01
2018-02-03T07:10:29.712Z,70.57
2018-02-03T07:12:58.165Z,71.24
2018-02-03T07:15:26.494Z,71.23
2018-02-03T07:17:54.777Z,71.51
2018-02-03T07:20:23.097Z,71.95
2018-02-03T07:22:51.456Z,72.20
2018-02-03T07:25:19.903Z,73.11
2018-02-03T07:27:48.325Z,72.29
2018-02-03T07:30:16.668Z,72.46
2018-02-03T07:32:45.032Z,72.89
2018-02-03T07:35:13.465Z,73.60
2018-02-03T07:37:41.839Z,73.69
2018-02-03T07:40:10.164Z,73.38
2018-02-03T07:42:38.536Z,74.07
2018-02-03T07:45:06.932Z,73.97
2018-02-03T07:47:35.339Z,73.58
2018-02-03T07:50:03.742Z,73.10
2018-02-03T07:52:32.092Z,72.69
2018-02-03T07:55:00.429Z,73.07
2018-02-03T07:57:29.047Z,73.20
2018-02-03T07:59:57.368Z,72.55
2018-02-03T08:02:25.771Z,71.97
2018-02-03T08:04:54.190Z,72.78
2018-02-03T08:07:22.483Z,72.11
2018-02-03T08:09:50.805Z,72.19
2018-02-03T08:12:19.173Z,71.93
2018-02-03T08:14:47.496Z,72.28
2018-02-03T08:17:15.841Z,72.63
2018-02-03T08:19:45.151Z,71.80
2018-02-03T08:22:14.224Z,72.17
2018-02-03T08:24:43.440Z,72.61
2018-02-03T08:27:11.889Z,72.80
2018-02-03T08:29:40.273Z,72.02
2018-02-03T08:32:08.575Z,72.33
2018-02-03T08:34:37.816Z,72.16
2018-02-03T08:37:06.165Z,71.67
2018-02-03T08:39:34.572Z,70.91
2018-02-03T08:42:03.108Z,71.15
2018-02-03T08:44:32.330Z,70.56
2018-02-03T08:47:00.704Z,71.11
2018-02-03T08:49:29.076Z,70.54
2018-02-03T08:51:57.397Z,70.37
2018-02-03T08:54:25.721Z,71.26
2018-02-03T08:56:54.816Z,71.13
2018-02-03T08:59:23.919Z,70.69
2018-02-03T09:01:53.014Z,69.97
2018-02-03T09:04:22.706Z,69.88
2018-02-03T09:06:51.023Z,70.49
2018-02-03T09:09:19.335Z,70.91
2018-02-03T09:12:05.428Z,69.88
2018-02-03T09:14:33.727Z,69.29
2018-02-03T09:17:02.017Z,68.82
2018-02-03T09:19:30.559Z,70.08
2018-02-03T09:21:58.878Z,69.62
2018-02-03T09:24:27.213Z,70.31
2018-02-03T09:26:55.548Z,70.86
2018-02-03T09:29:24.619Z,70.50
2018-02-03T09:31:52.949Z,70.92
2018-02-03T09:34:21.526Z,70.41
2018-02-03T09:36:49.855Z,70.55
2018-02-03T09:39:18.164Z,70.30
2018-02-03T09:41:46.677Z,69.97
2018-02-03T09:44:15.000Z,70.35
2018-02-03T09:46:43.338Z,70.99
2018-02-03T09:49:12.095Z,70.12
2018-02-03T09:51:40.387Z,69.36
2018-02-03T09:54:08.682Z,69.55
2018-02-03T09:56:37.024Z,69.35
2018-02-03T09:59:06.135Z,69.66
2018-02-03T10:01:34.521Z,69.45
2018-02-03T10:04:02.937Z,69.34
2018-02-03T10:06:31.247Z,70.02
2018-02-03T10:08:59.571Z,68.77
2018-02-03T10:11:28.758Z,69.99
2018-02-03T10:13:57.432Z,70.37
2018-02-03T10:16:25.886Z,70.50
2018-02-03T10:18:55.056Z,70.73
2018-02-03T10:21:23.399Z,69.23
2018-02-03T10:23:51.732Z,69.68
2018-02-03T10:26:20.191Z,70.58
2018-02-03T10:28:48.504Z,71.10
2018-02-03T10:31:16.810Z,71.82
2018-02-03T10:33:45.140Z,71.01
2018-02-03T10:36:13.438Z,71.05
2018-02-03T10:38:41.756Z,72.46
2018-02-03T10:41:10.178Z,72.39
2018-02-03T10:43:38.496Z,72.09
2018-02-03T10:46:07.592Z,71.57
2018-02-03T10:48:36.964Z,72.15
2018-02-03T10:51:05.265Z,70.64
2018-02-03T10:53:34.335Z,70.33
2018-02-03T10:56:02.683Z,70.90
2018-02-03T10:58:31.024Z,72.16
2018-02-03T11:01:04.866Z,71.64
2018-02-03T11:03:33.165Z,70.48
2018-02-03T11:06:01.461Z,70.49
2018-02-03T11:08:30.268Z,70.72
2018-02-03T11:10:59.322Z,69.74
2018-02-03T11:13:27.680Z,69.07
2018-02-03T11:15:56.036Z,67.94
2018-02-03T11:18:25.136Z,68.31
2018-02-03T11:20:53.435Z,68.95
2018-02-03T11:23:21.768Z,70.00
2018-02-03T11:25:50.834Z,68.61
2018-02-03T11:28:19.137Z,68.22
2018-02-03T11:30:47.892Z,66.69
2018-02-03T11:33:16.960Z,66.62
2018-02-03T11:35:45.278Z,66.10
2018-02-03T11:38:13.604Z,65.15
2018-02-03T11:40:41.917Z,64.58
2018-02-03T11:43:10.376Z,62.83
2018-02-03T11:45:38.741Z,65.28
2018-02-03T11:48:07.063Z,65.99
2018-02-03T11:50:35.399Z,65.42
2018-02-03T11:53:04.850Z,65.37
2018-02-03T11:55:33.243Z,64.96
2018-02-03T11:58:01.569Z,65.13
2018-02-03T12:00:29.932Z,64.58
2018-02-03T12:02:58.282Z,65.71
2018-02-03T12:05:26.611Z,66.55
2018-02-03T12:07:54.984Z,65.42
2018-02-03T12:10:23.302Z,65.02
2018-02-03T12:12:51.632Z,66.32
2018-02-03T12:15:20.368Z,65.90
2018-02-03T12:17:48.850Z,65.57
2018-02-03T12:20:17.157Z,65.22
2018-02-03T12:22:46.270Z,66.11
2018-02-03T12:25:14.573Z,65.71
2018-02-03T12:27:43.758Z,65.54
2018-02-03T12:30:12.125Z,65.27
2018-02-03T12:32:40.463Z,66.39
2018-02-03T12:35:08.793Z,65.29
2018-02-03T12:37:37.499Z,65.23
2018-02-03T12:40:05.815Z,65.65
2018-02-03T12:42:34.173Z,64.99
2018-02-03T12:45:02.524Z,64.01
2018-02-03T12:47:30.863Z,66.56
2018-02-03T12:49:59.940Z,65.54
2018-02-03T12:52:28.300Z,66.22
2018-02-03T12:54:56.636Z,66.08
2018-02-03T12:57:24.964Z,66.82
2018-02-03T12:59:54.007Z,67.81
2018-02-03T13:02:22.297Z,67.48
2018-02-03T13:04:50.615Z,67.40
2018-02-03T13:07:19.003Z,66.80
2018-02-03T13:09:47.353Z,66.99
2018-02-03T13:12:15.682Z,66.92
2018-02-03T13:14:44.830Z,68.63
2018-02-03T13:17:13.134Z,68.20
2018-02-03T13:19:41.455Z,67.95
2018-02-03T13:22:09.880Z,68.90
2018-02-03T13:24:38.193Z,68.06
2018-02-03T13:27:06.522Z,68.48
2018-02-03T13:29:34.871Z,68.16
2018-02-03T13:32:03.182Z,68.98
2018-02-03T13:34:31.513Z,68.23
2018-02-03T13:36:59.875Z,68.53
2018-02-03T13:39:29.402Z,68.51
2018-02-03T13:41:58.632Z,68.14
2018-02-03T13:44:27.525Z,68.48
2018-02-03T13:46:55.820Z,68.71
2018-02-03T13:49:24.140Z,68.89
2018-02-03T13:51:53.250Z,69.28
2018-02-03T13:54:21.563Z,70.33
2018-02-03T13:56:49.875Z,69.41
2018-02-03T13:59:18.183Z,70.56
2018-02-03T14:01:46.574Z,69.38
2018-02-03T14:04:14.905Z,69.63
2018-02-03T14:06:43.357Z,69.59
2018-02-03T14:09:11.715Z,69.73
2018-02-03T14:11:40.040Z,70.27
2018-02-03T14:14:08.388Z,69.25
2018-02-03T14:16:36.684Z,69.13
2018-02-03T14:19:05.039Z,69.71
2018-02-03T14:21:33.382Z,69.58
2018-02-03T14:24:07.943Z,69.42
2018-02-03T14:26:36.780Z,69.74
2018-02-03T14:29:05.079Z,69.79
2018-02-03T14:31:33.400Z,68.80
2018-02-03T14:34:01.870Z,68.82
2018-02-03T14:36:30.188Z,69.35
2018-02-03T14:38:58.510Z,70.37
2018-02-03T14:41:26.821Z,70.51
2018-02-03T14:43:55.164Z,70.46
2018-02-03T14:46:23.611Z,70.32
2018-02-03T14:48:52.299Z,70.06
2018-02-03T14:51:20.612Z,70.07
2018-02-03T14:53:48.948Z,70.54
2018-02-03T14:56:17.289Z,69.61
2018-02-03T14:58:45.599Z,70.00
2018-02-03T15:01:13.915Z,70.03
2018-02-03T15:03:42.248Z,70.60
2018-02-03T15:06:10.549Z,70.85
2018-02-03T15:08:38.883Z,70.03
2018-02-03T15:11:07.442Z,69.75
2018-02-03T15:13:35.765Z,69.27
2018-02-03T15:16:04.109Z,69.33
2018-02-03T15:18:32.473Z,69.20
2018-02-03T15:21:01.540Z,68.95
2018-02-03T15:23:29.870Z,69.07
2018-02-03T15:25:58.232Z,68.56
2018-02-03T15:28:26.576Z,68.86
2018-02-03T15:30:54.960Z,69.47
2018-02-03T15:33:24.582Z,68.69
2018-02-03T15:35:53.688Z,69.30
2018-02-03T15:38:22.070Z,69.65
2018-02-03T15:40:50.512Z,68.98
2018-02-03T15:43:18.895Z,68.76
2018-02-03T15:45:47.226Z,68.91
2018-02-03T15:48:15.642Z,68.62
2018-02-03T15:50:43.947Z,67.89
2018-02-03T15:53:13.032Z,68.33
2018-02-03T15:55:41.640Z,68.12
2018-02-03T15:58:10.723Z,69.40
2018-02-03T16:00:39.808Z,70.07
2018-02-03T16:03:08.197Z,70.08
2018-02-03T16:05:36.528Z,69.61
2018-02-03T16:08:04.896Z,70.65
2018-02-03T16:10:33.452Z,69.88
2018-02-03T16:13:02.585Z,70.84
2018-02-03T16:15:31.006Z,70.31
2018-02-03T16:17:59.460Z,69.98
2018-02-03T16:20:27.830Z,70.19
2018-02-03T16:22:56.124Z,69.78
2018-02-03T16:25:24.600Z,69.51
2018-02-03T16:27:52.957Z,70.55
2018-02-03T16:30:21.266Z,71.50
2018-02-03T16:32:49.623Z,71.12
2018-02-03T16:35:17.912Z,70.81
2018-02-03T16:37:46.240Z,72.33
2018-02-03T16:40:15.688Z,72.15
2018-02-03T16:42:44.165Z,71.38
2018-02-03T16:45:12.576Z,71.92
2018-02-03T16:47:41.004Z,70.82
2018-02-03T16:50:09.335Z,71.89
2018-02-03T16:52:37.683Z,71.48
2018-02-03T16:55:06.129Z,71.86
2018-02-03T16:57:34.542Z,70.66
2018-02-03T17:00:02.856Z,71.13
2018-02-03T17:02:31.814Z,71.45
2018-02-03T17:05:00.126Z,70.78
2018-02-03T17:07:28.433Z,70.48
2018-02-03T17:09:57.525Z,70.51
2018-02-03T17:12:26.572Z,70.40
2018-02-03T17:14:54.927Z,69.97
2018-02-03T17:17:23.260Z,70.38
2018-02-03T17:19:51.576Z,69.77
2018-02-03T17:22:19.864Z,69.65
2018-02-03T17:24:48.265Z,69.46
2018-02-03T17:27:16.580Z,70.22
2018-02-03T17:29:45.637Z,70.48
2018-02-03T17:32:13.975Z,69.80
2018-02-03T17:34:42.260Z,69.71
2018-02-03T17:37:16.209Z,69.67
2018-02-03T17:39:44.566Z,68.78
2018-02-03T17:42:12.919Z,69.05
2018-02-03T17:44:41.543Z,69.75
2018-02-03T17:47:10.607Z,69.95
2018-02-03T17:49:38.933Z,68.85
2018-02-03T17:52:07.290Z,69.55
2018-02-03T17:54:35.611Z,69.15
2018-02-03T17:57:10.100Z,69.37
2018-02-03T17:59:38.399Z,69.65
2018-02-03T18:02:06.712Z,69.69
2018-02-03T18:04:35.920Z,70.19
2018-02-03T18:07:06.011Z,69.70
2018-02-03T18:09:35.093Z,70.68
2018-02-03T18:12:03.422Z,68.00
2018-02-03T18:14:31.732Z,67.83
2018-02-03T18:17:00.812Z,67.08
2018-02-03T18:19:29.155Z,65.99
2018-02-03T18:21:57.459Z,67.67
2018-02-03T18:24:25.752Z,67.58
2018-02-03T18:26:54.320Z,67.41
2018-02-03T18:29:22.632Z,67.58
2018-02-03T18:31:51.805Z,67.23
2018-02-03T18:34:20.163Z,67.24
2018-02-03T18:36:48.493Z,66.66
2018-02-03T18:39:16.845Z,66.62
2018-02-03T18:41:45.167Z,67.08
2018-02-03T18:44:14.236Z,67.26
2018-02-03T18:46:42.551Z,68.26
2018-02-03T18:49:12.009Z,67.96
2018-02-03T18:51:40.332Z,66.97
2018-02-03T18:54:08.657Z,67.25
2018-02-03T18:56:37.001Z,67.98
2018-02-03T18:59:05.306Z,67.53
2018-02-03T19:01:33.607Z,66.67
2018-02-03T19:04:01.958Z,67.57
2018-02-03T19:06:30.290Z,67.97
2018-02-03T19:08:58.660Z,67.74
2018-02-03T19:11:27.357Z,66.92
2018-02-03T19:13:55.664Z,67.00
2018-02-03T19:16:23.956Z,66.67
2018-02-03T19:18:52.761Z,66.54
2018-02-03T19:21:21.088Z,66.49
2018-02-03T19:23:50.201Z,66.47
2018-02-03T19:26:18.559Z,66.08
2018-02-03T19:28:47.648Z,66.48
2018-02-03T19:31:15.944Z,67.43
2018-02-03T19:33:45.436Z,67.49
2018-02-03T19:36:14.544Z,66.15
2018-02-03T19:38:43.623Z,67.14
2018-02-03T19:41:12.759Z,67.02
2018-02-03T19:43:41.091Z,65.34
2018-02-03T19:46:09.426Z,66.05
2018-02-03T19:48:37.789Z,65.73
2018-02-03T19:51:06.098Z,65.64
2018-02-03T19:53:34.394Z,64.91
2018-02-03T19:56:03.149Z,65.83
2018-02-03T19:58:31.532Z,65.58
2018-02-03T20:00:59.959Z,64.98
2018-02-03T20:03:29.055Z,64.93
2018-02-03T20:05:58.388Z,64.56
2018-02-03T20:08:26.677Z,64.19
2018-02-03T20:10:55.036Z,64.47
2018-02-03T20:13:23.324Z,65.11
2018-02-03T20:15:51.726Z,64.58
2018-02-03T20:18:20.140Z,63.99
2018-02-03T20:20:48.452Z,63.89
2018-02-03T20:23:16.778Z,64.39
2018-02-03T20:25:45.192Z,64.18
2018-02-03T20:28:14.289Z,71.46
2018-02-03T20:30:43.394Z,65.73
2018-02-03T20:33:12.192Z,64.60
2018-02-03T20:35:40.570Z,63.76
2018-02-03T20:38:08.847Z,62.15
2018-02-03T20:40:37.289Z,63.04
2018-02-03T20:43:05.572Z,63.50
2018-02-03T20:45:33.888Z,63.63
2018-02-03T20:48:02.220Z,63.21
2018-02-03T20:50:30.576Z,62.78
2018-02-03T20:52:58.904Z,63.22
2018-02-03T20:55:28.023Z,62.71
2018-02-03T20:57:56.370Z,62.89
2018-02-03T21:00:25.425Z,62.52
2018-02-03T21:02:53.877Z,62.71
2018-02-03T21:05:22.182Z,62.25
2018-02-03T21:07:50.471Z,63.33
2018-02-03T21:10:18.816Z,63.32
2018-02-03T21:12:47.127Z,63.19
2018-02-03T21:15:15.447Z,62.91
2018-02-03T21:17:44.578Z,62.11
2018-02-03T21:20:12.887Z,63.46
2018-02-03T21:22:41.211Z,62.86
2018-02-03T21:25:09.976Z,63.81
2018-02-03T21:27:39.063Z,63.66
2018-02-03T21:30:07.385Z,63.75
2018-02-03T21:32:35.739Z,63.41
2018-02-03T21:35:04.091Z,64.04
2018-02-03T21:37:32.416Z,64.48
2018-02-03T21:40:00.775Z,64.40
2018-02-03T21:42:29.099Z,64.89
2018-02-03T21:44:57.426Z,65.58
2018-02-03T21:47:26.763Z,65.69
2018-02-03T21:49:55.131Z,65.38
2018-02-03T21:52:23.449Z,65.25
2018-02-03T21:54:51.769Z,65.71
2018-02-03T21:57:20.880Z,65.99
2018-02-03T21:59:49.209Z,64.99
2018-02-03T22:02:17.557Z,66.81
2018-02-03T22:04:45.861Z,66.59
2018-02-03T22:07:14.163Z,65.92
2018-02-03T22:09:42.984Z,66.15
2018-02-03T22:12:11.386Z,65.37
2018-02-03T22:14:39.700Z,66.06
2018-02-03T22:17:08.048Z,66.56
2018-02-03T22:19:36.370Z,66.48
2018-02-03T22:22:05.424Z,67.83
2018-02-03T22:24:33.772Z,67.42
2018-02-03T22:27:02.819Z,67.46
2018-02-03T22:29:31.126Z,67.32
2018-02-03T22:32:00.511Z,67.18
2018-02-03T22:34:28.851Z,67.76
2018-02-03T22:36:57.165Z,67.81
2018-02-03T22:39:25.515Z,68.39
2018-02-03T22:41:53.843Z,67.29
2018-02-03T22:44:22.939Z,67.11
2018-02-03T22:46:52.052Z,68.12
2018-02-03T22:49:21.109Z,67.12
2018-02-03T22:51:49.429Z,67.52
2018-02-03T22:54:18.107Z,67.73
2018-02-03T22:56:46.439Z,67.76
2018-02-03T22:59:14.728Z,67.85
2018-02-03T23:01:43.104Z,68.68
2018-02-03T23:04:11.473Z,68.28
2018-02-03T23:06:39.835Z,68.46
2018-02-03T23:09:08.203Z,68.37
2018-02-03T23:11:36.527Z,68.08
2018-02-03T23:14:04.848Z,68.56
2018-02-03T23:16:33.385Z,68.94
2018-02-03T23:19:01.721Z,69.06
2018-02-03T23:21:30.028Z,68.92
2018-02-03T23:23:58.456Z,68.94
2018-02-03T23:26:26.750Z,69.23
2018-02-03T23:28:55.063Z,68.85
2018-02-03T23:31:23.413Z,68.60
2018-02-03T23:33:51.723Z,69.26
2018-02-03T23:36:20.074Z,68.38
2018-02-03T23:38:48.479Z,68.45
2018-02-03T23:41:16.800Z,68.81
2018-02-03T23:43:45.108Z,68.48
2018-02-03T23:46:15.126Z,68.24
2018-02-03T23:48:43.452Z,67.91
2018-02-03T23:51:11.776Z,67.58
2018-02-03T23:53:40.118Z,68.18
2018-02-03T23:56:09.175Z,69.58
2018-02-03T23:58:37.479Z,68.85
